Time;durP1;ratioP1;P1;durP2;ratioP2;P2;SDS_P1;SDS_P2;PMS_P1;PMS_P2;Temp;Humidity;BMP_temperature;BMP_pressure;BME280_temperature;BME280_humidity;BME280_pressure;Samples;Min_cycle;Max_cycle;Signal;HPM_P1;HPM_P2
2023/07/21 00:00:54;;;;;;;3.60;3.20;;;;;;;20.38;74.01;100049.41;6552812;27;33165;-83
2023/07/21 00:03:57;;;;;;;3.42;2.80;;;;;;;20.32;74.75;100044.94;6514327;27;34138;-83
2023/07/21 00:07:00;;;;;;;3.30;3.00;;;;;;;20.27;76.22;100047.59;6533291;27;33117;-83
2023/07/21 00:10:07;;;;;;;5.25;3.00;;;;;;;20.23;75.88;100052.72;6533933;27;33385;-83
2023/07/21 00:13:11;;;;;;;4.80;2.85;;;;;;;20.21;75.18;100046.69;6553446;27;34351;-83
2023/07/21 00:16:14;;;;;;;3.37;3.00;;;;;;;20.22;73.94;100040.16;6551967;27;33071;-83
2023/07/21 00:19:16;;;;;;;2.87;2.60;;;;;;;20.21;73.85;100037.66;6496377;27;34071;-83
2023/07/21 00:22:22;;;;;;;3.17;2.70;;;;;;;20.23;74.16;100047.25;6550988;27;33321;-83
2023/07/21 00:25:24;;;;;;;4.40;2.80;;;;;;;20.21;75.88;100045.84;6532360;27;34015;-83
2023/07/21 00:28:27;;;;;;;3.97;2.85;;;;;;;20.15;76.65;100050.41;6531830;27;34100;-83
2023/07/21 00:31:31;;;;;;;6.28;3.65;;;;;;;20.10;76.95;100051.16;6551087;27;33046;-83
2023/07/21 00:34:34;;;;;;;5.18;2.83;;;;;;;20.14;76.65;100055.06;6514195;27;33612;-87
2023/07/21 00:37:38;;;;;;;4.20;2.92;;;;;;;20.21;77.70;100049.44;6532005;27;33265;-87
2023/07/21 00:40:41;;;;;;;7.97;2.92;;;;;;;20.28;76.18;100046.53;6551366;27;33069;-84
2023/07/21 00:43:44;;;;;;;3.87;2.62;;;;;;;20.30;74.87;100047.06;6514037;27;34240;-84
2023/07/21 00:46:49;;;;;;;3.20;2.90;;;;;;;20.28;75.33;100046.53;6532259;27;33043;-83
2023/07/21 00:49:52;;;;;;;2.83;2.30;;;;;;;20.25;73.75;100045.13;6514355;27;34928;-83
2023/07/21 00:52:58;;;;;;;2.50;2.30;;;;;;;20.20;72.96;100036.81;6514019;27;33046;-84
2023/07/21 00:56:01;;;;;;;4.68;2.70;;;;;;;20.23;72.83;100041.78;6532031;27;33421;-84
2023/07/21 00:59:04;;;;;;;4.50;2.60;;;;;;;20.23;73.18;100039.06;6531653;27;33946;-83
2023/07/21 01:02:07;;;;;;;3.00;2.28;;;;;;;20.22;73.58;100037.41;6531617;27;33468;-83
2023/07/21 01:05:12;;;;;;;3.78;3.10;;;;;;;20.32;73.91;100032.09;6531708;27;33642;-83
2023/07/21 01:08:18;;;;;;;2.78;2.33;;;;;;;20.43;73.57;100035.00;6531942;27;33366;-83
2023/07/21 01:11:21;;;;;;;2.67;2.47;;;;;;;20.51;73.48;100032.66;6550881;27;34118;-83
2023/07/21 01:14:25;;;;;;;3.92;2.40;;;;;;;20.53;72.68;100037.88;6550681;27;33372;-83
2023/07/21 01:17:30;;;;;;;5.10;2.40;;;;;;;20.59;72.35;100034.13;6531845;27;33466;-84
2023/07/21 01:20:34;;;;;;;5.07;2.67;;;;;;;20.64;72.12;100030.66;6513858;27;32962;-83
2023/07/21 01:23:57;;;;;;;3.67;2.72;;;;;;;20.56;72.74;100029.19;6550667;27;33276;-83
2023/07/21 01:27:02;;;;;;;2.62;2.42;;;;;;;20.47;74.34;100028.75;6550551;27;34120;-83
2023/07/21 01:30:10;;;;;;;2.90;2.70;;;;;;;20.43;75.85;100035.81;6550961;27;33940;-83
2023/07/21 01:33:17;;;;;;;3.20;2.85;;;;;;;20.43;76.67;100024.06;6531375;27;34749;-83
2023/07/21 01:36:21;;;;;;;3.22;2.45;;;;;;;20.35;76.94;100033.50;6550517;27;33654;-83
2023/07/21 01:39:24;;;;;;;3.47;2.50;;;;;;;20.35;77.01;100042.53;6550392;27;33361;-83
2023/07/21 01:42:30;;;;;;;2.42;2.12;;;;;;;20.33;78.30;100041.13;6513404;27;33340;-83
2023/07/21 01:45:33;;;;;;;3.08;2.62;;;;;;;20.35;78.27;100036.22;6550555;27;33104;-83
2023/07/21 01:48:36;;;;;;;2.80;2.47;;;;;;;20.30;78.84;100030.69;6531246;27;33567;-83
2023/07/21 01:51:39;;;;;;;2.60;2.40;;;;;;;20.34;77.69;100035.41;6531509;27;34211;-83
2023/07/21 01:54:58;;;;;;;3.20;2.50;;;;;;;20.31;78.02;100038.66;6531330;27;33170;-83
2023/07/21 01:58:06;;;;;;;4.10;2.50;;;;;;;20.30;79.11;100045.19;6550657;27;33815;-83
2023/07/21 02:01:11;;;;;;;4.78;3.33;;;;;;;20.30;78.90;100045.19;6563506;27;33585;-83
2023/07/21 02:04:14;;;;;;;3.75;3.05;;;;;;;20.33;78.40;100044.69;6561617;27;34816;-87
2023/07/21 02:07:20;;;;;;;3.17;2.85;;;;;;;20.27;80.64;100042.97;6521022;27;33503;-87
2023/07/21 02:10:24;;;;;;;4.65;3.03;;;;;;;20.31;80.53;100046.84;6568825;27;33718;-87
2023/07/21 02:13:27;;;;;;;5.55;2.87;;;;;;;20.32;79.98;100048.50;6504908;27;34425;-84
2023/07/21 02:16:30;;;;;;;3.17;2.80;;;;;;;20.33;79.56;100041.97;6531179;27;34095;-84
2023/07/21 02:19:32;;;;;;;3.53;2.65;;;;;;;20.34;80.30;100048.25;6550617;27;34410;-84
2023/07/21 02:22:37;;;;;;;3.05;2.72;;;;;;;20.27;76.21;100053.06;6531109;27;33407;-84
2023/07/21 02:25:41;;;;;;;4.25;2.70;;;;;;;20.34;76.64;100057.28;6531905;27;33950;-84
2023/07/21 02:28:44;;;;;;;4.40;2.78;;;;;;;20.41;75.99;100059.84;6531444;27;33034;-84
2023/07/21 02:31:49;;;;;;;3.17;2.67;;;;;;;20.37;76.98;100043.09;6531550;27;33015;-84
2023/07/21 02:34:52;;;;;;;4.47;3.10;;;;;;;20.37;77.35;100048.56;6550329;27;34250;-84
2023/07/21 02:37:57;;;;;;;3.15;2.37;;;;;;;20.40;74.59;100058.19;6513740;27;34395;-84
2023/07/21 02:41:05;;;;;;;3.20;2.58;;;;;;;20.54;71.22;100059.53;6496467;27;33164;-84
2023/07/21 02:44:09;;;;;;;5.18;2.62;;;;;;;20.65;71.48;100056.91;6531114;27;33464;-83
2023/07/21 02:47:15;;;;;;;2.78;2.58;;;;;;;20.69;68.48;100058.09;6550093;27;33582;-83
2023/07/21 02:50:19;;;;;;;5.03;2.40;;;;;;;20.68;69.18;100049.06;6550434;27;33219;-83
2023/07/21 02:53:22;;;;;;;4.05;2.80;;;;;;;20.64;69.83;100047.91;6534935;27;34093;-83
2023/07/21 02:56:27;;;;;;;3.80;2.28;;;;;;;20.70;71.67;100041.41;6531805;27;32962;-83
2023/07/21 02:59:30;;;;;;;3.97;2.42;;;;;;;20.71;73.26;100045.81;6550345;27;33444;-83
2023/07/21 03:02:35;;;;;;;3.80;2.40;;;;;;;20.59;73.09;100059.59;6531444;27;33191;-83
2023/07/21 03:05:41;;;;;;;2.30;2.10;;;;;;;20.63;72.66;100064.56;6531969;27;34142;-84
2023/07/21 03:08:44;;;;;;;2.85;2.55;;;;;;;20.56;72.19;100073.78;6531841;27;34283;-83
2023/07/21 03:11:47;;;;;;;2.70;2.50;;;;;;;20.50;71.06;100080.19;6531075;27;33405;-83
2023/07/21 03:14:52;;;;;;;2.28;2.08;;;;;;;20.56;70.97;100083.88;6531687;27;34293;-83
2023/07/21 03:17:55;;;;;;;3.35;2.20;;;;;;;20.49;69.36;100073.09;6550503;27;33156;-83
2023/07/21 03:20:59;;;;;;;2.60;2.40;;;;;;;20.47;69.45;100071.69;6550440;27;34051;-83
2023/07/21 03:24:02;;;;;;;4.93;2.47;;;;;;;20.37;69.51;100078.66;6551609;27;33881;-83
2023/07/21 03:27:06;;;;;;;2.65;2.45;;;;;;;20.43;69.47;100078.75;6532346;27;33060;-83
2023/07/21 03:30:10;;;;;;;2.33;2.03;;;;;;;20.43;69.67;100085.03;6532444;27;34840;-83
2023/07/21 03:33:13;;;;;;;4.95;2.37;;;;;;;20.40;69.84;100080.06;6532330;27;33158;-83
2023/07/21 03:36:20;;;;;;;2.62;2.40;;;;;;;20.37;69.60;100075.09;6532072;27;33354;-83
2023/07/21 03:39:23;;;;;;;2.92;2.33;;;;;;;20.32;70.99;100073.09;6515504;27;33536;-83
2023/07/21 03:42:26;;;;;;;2.85;2.03;;;;;;;20.33;69.26;100073.94;6514432;27;33243;-83
2023/07/21 03:45:29;;;;;;;2.62;2.33;;;;;;;20.42;69.10;100069.72;6551200;27;33144;-83
2023/07/21 03:48:33;;;;;;;3.67;2.30;;;;;;;20.37;71.14;100073.19;6532098;27;33464;-83
2023/07/21 03:51:39;;;;;;;2.42;2.05;;;;;;;20.33;69.85;100084.87;6531964;27;33455;-83
2023/07/21 03:54:44;;;;;;;2.72;2.37;;;;;;;20.31;70.38;100082.38;6532382;27;33910;-83
2023/07/21 03:57:48;;;;;;;3.45;2.40;;;;;;;20.21;72.15;100084.97;6531938;27;32968;-87
2023/07/21 04:00:50;;;;;;;3.72;2.40;;;;;;;20.08;72.17;100074.34;6531600;27;33476;-87
2023/07/21 04:03:53;;;;;;;3.28;2.47;;;;;;;20.09;72.99;100070.53;6551222;27;33497;-87
2023/07/21 04:06:56;;;;;;;2.70;2.35;;;;;;;20.09;73.32;100071.34;6517558;27;33427;-87
2023/07/21 04:09:59;;;;;;;3.20;2.40;;;;;;;20.13;74.35;100080.72;6542544;27;33887;-84
2023/07/21 04:13:02;;;;;;;2.83;2.58;;;;;;;20.20;73.96;100077.00;6543941;27;33158;-84
2023/07/21 04:16:05;;;;;;;4.05;2.75;;;;;;;20.36;72.41;100077.00;6532191;27;33085;-83
2023/07/21 04:19:08;;;;;;;4.85;2.60;;;;;;;20.64;71.39;100069.78;6532116;27;33356;-83
2023/07/21 04:22:11;;;;;;;4.15;2.45;;;;;;;20.87;70.17;100079.69;6514545;27;33886;-83
2023/07/21 04:25:17;;;;;;;4.57;2.90;;;;;;;21.03;68.87;100073.34;6532168;27;34509;-83
2023/07/21 04:28:21;;;;;;;3.85;2.42;;;;;;;21.25;66.89;100081.53;6551133;27;33075;-84
2023/07/21 04:31:28;;;;;;;6.95;3.15;;;;;;;21.34;66.67;100073.69;6551183;27;33407;-84
2023/07/21 04:34:32;;;;;;;6.03;2.87;;;;;;;21.41;67.01;100071.63;6516161;27;34250;-84
2023/07/21 04:37:35;;;;;;;3.08;2.80;;;;;;;21.57;67.25;100066.31;6514268;27;33364;-83
2023/07/21 04:40:41;;;;;;;3.42;2.80;;;;;;;21.77;66.56;100076.66;6551381;27;34537;-83
2023/07/21 04:43:44;;;;;;;5.18;2.80;;;;;;;21.77;67.29;100082.13;6551221;27;34247;-83
2023/07/21 04:46:48;;;;;;;3.35;2.83;;;;;;;21.61;69.10;100076.47;6531921;27;33848;-84
2023/07/21 04:49:52;;;;;;;4.18;2.30;;;;;;;21.66;68.22;100073.78;6515099;27;33331;-83
2023/07/21 04:52:55;;;;;;;2.95;2.67;;;;;;;21.64;67.56;100078.69;6532380;27;33239;-83
2023/07/21 04:55:58;;;;;;;6.95;2.55;;;;;;;21.65;67.95;100080.38;6513860;27;33398;-83
2023/07/21 04:59:01;;;;;;;5.65;2.70;;;;;;;21.87;67.43;100072.06;6550994;27;33100;-83
2023/07/21 05:02:04;;;;;;;3.10;2.50;;;;;;;22.03;67.22;100074.97;6513936;27;33369;-83
2023/07/21 05:05:07;;;;;;;3.47;2.53;;;;;;;22.18;68.13;100084.16;6514218;27;33355;-83
2023/07/21 05:08:10;;;;;;;3.35;2.40;;;;;;;22.35;66.97;100077.72;6514052;27;33323;-83
2023/07/21 05:11:13;;;;;;;5.05;2.78;;;;;;;22.49;66.01;100081.63;6515248;27;34447;-83
2023/07/21 05:14:17;;;;;;;3.60;2.78;;;;;;;22.66;65.02;100088.88;6519202;27;33348;-83
2023/07/21 05:17:21;;;;;;;4.62;3.10;;;;;;;22.60;65.08;100094.34;6536711;27;33565;-84
2023/07/21 05:20:24;;;;;;;3.50;2.97;;;;;;;22.48;65.06;100092.88;6547888;27;34823;-83
2023/07/21 05:23:29;;;;;;;3.55;2.80;;;;;;;22.31;65.73;100096.59;6517098;27;33084;-83
2023/07/21 05:26:36;;;;;;;3.20;2.53;;;;;;;22.33;67.12;100094.44;6538135;27;34179;-84
2023/07/21 05:29:40;;;;;;;4.57;2.83;;;;;;;22.25;69.80;100092.16;6535577;27;33648;-83
2023/07/21 05:32:44;;;;;;;4.07;2.92;;;;;;;22.23;68.04;100091.63;6552837;27;33133;-83
2023/07/21 05:35:47;;;;;;;5.07;3.00;;;;;;;22.28;66.70;100097.13;6533507;27;33674;-83
2023/07/21 05:38:51;;;;;;;3.62;2.87;;;;;;;22.29;68.26;100082.34;6551925;27;34710;-83
2023/07/21 05:41:58;;;;;;;3.30;2.72;;;;;;;22.31;67.38;100087.53;6517958;27;33221;-83
2023/07/21 05:45:05;;;;;;;5.80;2.90;;;;;;;22.46;67.13;100081.34;6537668;27;33824;-83
2023/07/21 05:48:09;;;;;;;3.70;2.80;;;;;;;22.54;66.98;100091.84;6514151;27;34121;-83
2023/07/21 05:51:13;;;;;;;4.43;2.97;;;;;;;22.66;66.65;100075.16;6532424;27;33342;-84
2023/07/21 05:54:17;;;;;;;4.47;2.70;;;;;;;22.70;66.18;100059.81;6550278;27;33304;-84
2023/07/21 05:57:20;;;;;;;3.72;2.90;;;;;;;22.63;66.32;100054.56;6551066;27;34213;-84
2023/07/21 06:00:23;;;;;;;4.60;2.87;;;;;;;22.78;66.23;100056.56;6531434;27;33958;-88
2023/07/21 06:03:28;;;;;;;6.30;2.62;;;;;;;22.94;64.49;100062.97;6531121;27;33321;-87
2023/07/21 06:06:32;;;;;;;6.47;2.90;;;;;;;23.25;62.94;100067.53;6515615;27;33838;-88
2023/07/21 06:09:36;;;;;;;3.33;2.80;;;;;;;23.75;60.37;100074.28;6531557;27;33488;-84
2023/07/21 06:12:39;;;;;;;3.15;2.60;;;;;;;23.85;58.88;100064.41;6516629;27;33407;-84
2023/07/21 06:15:42;;;;;;;5.72;2.80;;;;;;;23.87;59.70;100060.28;6533750;27;293617;-84
2023/07/21 06:18:46;;;;;;;3.33;2.87;;;;;;;23.85;58.60;100054.22;6568429;27;33709;-84
2023/07/21 06:21:49;;;;;;;6.37;2.87;;;;;;;23.71;59.91;100059.41;6520183;27;33843;-84
2023/07/21 06:24:52;;;;;;;3.72;2.70;;;;;;;23.84;59.63;100069.06;6513921;27;33048;-84
2023/07/21 06:27:55;;;;;;;3.92;2.70;;;;;;;23.74;60.57;100080.03;6513769;27;33126;-84
2023/07/21 06:30:58;;;;;;;5.47;2.53;;;;;;;23.64;60.03;100091.00;6513538;27;33005;-84
2023/07/21 06:34:06;;;;;;;6.82;2.87;;;;;;;23.52;61.26;100091.25;6517004;27;33157;-84
2023/07/21 06:37:09;;;;;;;4.70;2.62;;;;;;;23.42;60.97;100091.19;6534308;27;34320;-84
2023/07/21 06:40:13;;;;;;;7.10;2.87;;;;;;;23.34;62.42;100088.97;6531641;27;33381;-83
2023/07/21 06:43:17;;;;;;;4.78;2.87;;;;;;;23.25;62.66;100094.16;6531515;27;33707;-84
2023/07/21 06:46:20;;;;;;;4.22;2.70;;;;;;;23.22;62.77;100100.19;6531078;27;34691;-84
2023/07/21 06:49:23;;;;;;;5.45;2.85;;;;;;;23.08;62.84;100117.16;6550641;27;33566;-84
2023/07/21 06:52:28;;;;;;;4.00;2.90;;;;;;;22.99;64.20;100104.19;6530941;27;33552;-84
2023/07/21 06:55:32;;;;;;;3.03;2.75;;;;;;;22.89;64.70;100104.13;6531151;27;33084;-84
2023/07/21 06:58:35;;;;;;;4.12;2.62;;;;;;;22.79;65.56;100097.50;6532739;27;32935;-84
2023/07/21 07:01:38;;;;;;;6.00;3.05;;;;;;;22.74;65.70;100096.62;6497145;27;33199;-84
2023/07/21 07:04:42;;;;;;;7.10;2.95;;;;;;;22.82;67.86;100093.38;6519024;27;34076;-83
2023/07/21 07:07:45;;;;;;;5.07;2.90;;;;;;;22.96;65.39;100101.97;6540418;27;33344;-84
2023/07/21 07:10:48;;;;;;;3.78;3.37;;;;;;;22.90;66.04;100101.09;6531777;27;34077;-84
2023/07/21 07:13:50;;;;;;;6.05;2.95;;;;;;;22.99;65.09;100105.06;6531887;27;34499;-84
2023/07/21 07:16:53;;;;;;;5.05;2.90;;;;;;;23.04;66.13;100093.25;6551178;27;34429;-83
2023/07/21 07:19:56;;;;;;;3.87;2.80;;;;;;;23.23;64.95;100097.19;6531905;27;33041;-84
2023/07/21 07:22:59;;;;;;;3.47;3.17;;;;;;;23.45;63.66;100091.47;6514136;27;34499;-83
2023/07/21 07:26:04;;;;;;;5.00;2.90;;;;;;;23.71;62.79;100095.16;6531853;27;33268;-84
2023/07/21 07:29:07;;;;;;;6.55;3.00;;;;;;;23.82;62.20;100081.44;6532603;27;33054;-83
2023/07/21 07:32:10;;;;;;;5.10;3.20;;;;;;;23.92;63.37;100073.19;6531063;27;33932;-84
2023/07/21 07:35:13;;;;;;;4.55;2.95;;;;;;;23.91;63.54;100066.88;6551078;27;33299;-84
2023/07/21 07:38:23;;;;;;;4.18;3.05;;;;;;;23.90;63.04;100053.41;6532029;27;34180;-84
2023/07/21 07:41:27;;;;;;;3.30;3.00;;;;;;;24.05;62.18;100058.91;6551642;27;33051;-84
2023/07/21 07:44:30;;;;;;;5.93;2.90;;;;;;;24.23;61.63;100051.19;6514120;27;34294;-84
2023/07/21 07:47:34;;;;;;;6.12;3.12;;;;;;;24.23;62.01;100045.69;6551471;27;34584;-84
2023/07/21 07:50:39;;;;;;;3.62;3.10;;;;;;;24.33;61.37;100051.16;6514934;27;33540;-84
2023/07/21 07:53:42;;;;;;;6.12;3.10;;;;;;;24.61;60.53;100058.88;6550912;27;33101;-84
2023/07/21 07:56:47;;;;;;;6.70;2.95;;;;;;;24.67;61.23;100066.00;6550495;27;33098;-84
2023/07/21 07:59:50;;;;;;;4.45;2.80;;;;;;;24.43;60.73;100062.22;6553733;27;33337;-83
2023/07/21 08:02:53;;;;;;;5.00;2.72;;;;;;;24.89;60.65;100068.44;6534305;27;33722;-83
2023/07/21 08:05:59;;;;;;;3.30;2.87;;;;;;;24.94;59.43;100064.81;6534004;27;33667;-88
2023/07/21 08:09:06;;;;;;;2.87;2.47;;;;;;;25.01;58.09;100062.59;6553816;27;33642;-88
2023/07/21 08:12:09;;;;;;;7.55;2.90;;;;;;;25.58;57.14;100062.34;6516696;27;33121;-84
2023/07/21 08:15:12;;;;;;;8.30;3.25;;;;;;;25.85;57.74;100053.63;6534886;27;33476;-84
2023/07/21 08:18:15;;;;;;;2.87;2.62;;;;;;;26.15;56.58;100053.41;6517753;27;33764;-84
2023/07/21 08:21:27;;;;;;;5.18;2.90;;;;;;;26.46;54.05;100042.06;6518053;27;33603;-84
2023/07/21 08:24:31;;;;;;;5.87;2.92;;;;;;;26.49;53.35;100048.94;6570053;27;33453;-84
2023/07/21 08:27:35;;;;;;;5.35;2.83;;;;;;;26.55;53.76;100050.56;6571058;27;34898;-84
2023/07/21 08:30:38;;;;;;;4.05;2.72;;;;;;;26.11;55.95;100049.56;6555898;27;33508;-84
2023/07/21 08:33:58;;;;;;;2.85;2.60;;;;;;;26.09;55.49;100050.94;6553615;27;33500;-83
2023/07/21 08:37:01;;;;;;;6.25;3.45;;;;;;;26.37;54.53;100052.91;6533744;27;33310;-84
2023/07/21 08:40:06;;;;;;;6.75;3.00;;;;;;;27.11;52.13;100044.37;6517100;27;34146;-84
2023/07/21 08:43:09;;;;;;;4.75;3.10;;;;;;;27.19;52.63;100035.44;6535767;27;33306;-84
2023/07/21 08:46:12;;;;;;;4.90;3.22;;;;;;;27.25;51.77;100042.56;6517346;27;32492;-84
2023/07/21 08:49:17;;;;;;;3.80;3.00;;;;;;;27.15;52.10;100037.19;6553370;27;34080;-83
2023/07/21 08:52:20;;;;;;;5.00;3.28;;;;;;;27.49;51.04;100042.50;6553270;27;34084;-84
2023/07/21 08:55:25;;;;;;;3.45;2.87;;;;;;;27.35;50.59;100042.44;6516858;27;33447;-84
2023/07/21 08:58:29;;;;;;;5.40;3.08;;;;;;;27.34;51.40;100038.00;6533866;27;33637;-84
2023/07/21 09:01:33;;;;;;;4.65;3.08;;;;;;;27.22;51.90;100034.03;6553653;27;33299;-84
2023/07/21 09:04:36;;;;;;;4.45;3.05;;;;;;;27.04;52.05;100038.41;6552685;27;33822;-83
2023/07/21 09:07:41;;;;;;;5.22;3.15;;;;;;;27.00;51.99;100038.16;6532039;27;33797;-84
2023/07/21 09:10:44;;;;;;;5.00;2.92;;;;;;;26.69;52.96;100030.22;6514904;27;33767;-84
2023/07/21 09:13:57;;;;;;;4.70;3.00;;;;;;;27.04;52.25;100028.16;6531829;27;34081;-84
2023/07/21 09:17:03;;;;;;;4.45;2.70;;;;;;;27.67;50.25;100031.72;6551419;27;34391;-84
2023/07/21 09:20:09;;;;;;;2.97;2.67;;;;;;;28.07;48.14;100021.97;6537149;27;34031;-84
2023/07/21 09:23:11;;;;;;;4.68;2.90;;;;;;;28.14;47.57;100014.09;6555117;27;33612;-85
2023/07/21 09:26:22;;;;;;;3.15;2.80;;;;;;;28.40;46.52;100013.63;6532255;27;33466;-84
2023/07/21 09:29:26;;;;;;;3.00;2.70;;;;;;;28.04;48.98;100015.09;6551773;27;34138;-83
2023/07/21 09:32:38;;;;;;;4.90;2.80;;;;;;;28.23;48.38;100028.88;6531923;27;33338;-84
2023/07/21 09:35:41;;;;;;;3.67;2.78;;;;;;;28.05;49.08;100029.75;6551562;27;34451;-88
2023/07/21 09:38:44;;;;;;;5.00;3.10;;;;;;;27.99;48.03;100025.41;6532377;27;33400;-88
2023/07/21 09:41:51;;;;;;;5.50;2.90;;;;;;;28.05;47.43;100049.12;6532477;27;33222;-85
2023/07/21 09:44:55;;;;;;;7.07;3.05;;;;;;;28.29;47.82;100040.69;6555256;27;32877;-84
2023/07/21 09:47:59;;;;;;;6.10;2.80;;;;;;;28.51;46.50;100039.22;6555881;27;33526;-84
2023/07/21 09:51:07;;;;;;;4.18;3.10;;;;;;;28.65;46.42;100035.31;6552101;27;33325;-84
2023/07/21 09:54:16;;;;;;;3.37;2.90;;;;;;;28.75;44.20;100030.72;6551169;27;33329;-84
2023/07/21 09:57:23;;;;;;;3.10;2.80;;;;;;;28.86;46.05;100019.09;6550951;27;33203;-84
2023/07/21 10:00:28;;;;;;;3.50;2.85;;;;;;;29.03;46.30;100015.75;6551036;27;33103;-84
2023/07/21 10:03:34;;;;;;;2.95;2.65;;;;;;;29.34;42.88;100020.63;6550788;27;34197;-84
2023/07/21 10:06:37;;;;;;;3.05;2.67;;;;;;;29.18;42.96;100016.53;6550904;27;33982;-84
2023/07/21 10:09:44;;;;;;;3.65;2.42;;;;;;;28.80;44.16;100011.22;6531535;27;33312;-84
2023/07/21 10:12:49;;;;;;;3.35;2.90;;;;;;;29.14;43.09;100008.03;6550461;27;33514;-84
2023/07/21 10:15:59;;;;;;;4.32;2.58;;;;;;;29.80;41.85;100017.59;6550352;27;33299;-84
2023/07/21 10:19:07;;;;;;;3.25;2.95;;;;;;;30.12;40.87;100006.53;6532358;27;33250;-84
2023/07/21 10:22:25;;;;;;;3.58;2.70;;;;;;;29.77;40.44;99998.78;6551054;27;33010;-84
2023/07/21 10:25:27;;;;;;;4.03;2.58;;;;;;;29.77;41.00;99998.78;6550899;27;33161;-84
2023/07/21 10:28:44;;;;;;;2.65;2.45;;;;;;;30.02;42.39;99989.00;6531776;27;33462;-84
2023/07/21 10:31:55;;;;;;;4.50;2.67;;;;;;;30.46;39.41;99978.97;6559775;27;33163;-84
2023/07/21 10:34:59;;;;;;;3.03;2.67;;;;;;;30.81;39.51;99975.53;6545326;27;34780;-84
2023/07/21 10:38:23;;;;;;;3.90;2.80;;;;;;;30.08;40.76;99986.13;6531743;27;34143;-84
2023/07/21 10:41:26;;;;;;;5.62;2.92;;;;;;;30.01;41.74;99976.28;6550843;27;33415;-88
2023/07/21 10:44:33;;;;;;;3.42;2.37;;;;;;;29.87;41.28;99972.75;6531491;27;33046;-88
2023/07/21 10:47:36;;;;;;;7.12;2.75;;;;;;;29.77;40.66;99973.00;6550571;27;33383;-85
2023/07/21 10:50:40;;;;;;;6.60;3.05;;;;;;;29.75;41.63;99978.06;6531221;27;33853;-84
2023/07/21 10:53:44;;;;;;;3.70;2.50;;;;;;;30.25;40.66;99964.03;6550586;27;33364;-84
2023/07/21 10:56:49;;;;;;;3.92;2.60;;;;;;;30.52;40.39;99962.97;6532431;27;33309;-84
2023/07/21 10:59:53;;;;;;;3.33;2.40;;;;;;;30.31;40.02;99965.53;6552031;27;33185;-84
2023/07/21 11:02:56;;;;;;;4.35;2.40;;;;;;;30.38;39.74;99956.72;6531347;27;34070;-84
2023/07/21 11:06:00;;;;;;;6.35;2.67;;;;;;;30.08;41.16;99950.03;6531628;27;33635;-84
2023/07/21 11:09:03;;;;;;;5.35;2.28;;;;;;;30.26;40.08;99957.31;6513514;27;33198;-83
2023/07/21 11:12:07;;;;;;;2.40;2.20;;;;;;;29.83;40.35;99952.31;6531133;27;33473;-82
2023/07/21 11:15:10;;;;;;;3.53;2.22;;;;;;;29.32;39.15;99954.38;6513984;27;33438;-83
2023/07/21 11:18:13;;;;;;;3.37;2.58;;;;;;;28.83;40.04;99955.19;6513211;27;33361;-83
2023/07/21 11:21:15;;;;;;;6.55;2.53;;;;;;;28.29;40.67;99956.81;6531287;27;33329;-83
2023/07/21 11:24:22;;;;;;;4.30;2.35;;;;;;;28.03;40.86;99944.28;6513313;27;33003;-83
2023/07/21 11:27:29;;;;;;;3.40;2.28;;;;;;;27.68;41.79;99934.63;6550617;27;33319;-84
2023/07/21 11:30:32;;;;;;;3.50;2.30;;;;;;;27.52;43.14;99936.00;6562671;27;33437;-83
2023/07/21 11:33:40;;;;;;;3.30;2.50;;;;;;;27.26;43.54;99932.81;6551447;27;34429;-83
2023/07/21 11:36:44;;;;;;;4.53;2.75;;;;;;;26.84;45.30;99937.25;6563410;27;34544;-83
2023/07/21 11:39:57;;;;;;;4.03;2.37;;;;;;;26.59;45.85;99944.75;6550600;27;33716;-83
2023/07/21 11:43:06;;;;;;;4.15;2.60;;;;;;;26.30;47.05;99957.78;6531844;27;34123;-83
2023/07/21 11:46:09;;;;;;;2.40;2.20;;;;;;;26.20;47.68;99958.69;6533038;27;34316;-83
2023/07/21 11:49:14;;;;;;;3.28;2.70;;;;;;;26.18;47.24;99959.00;6517373;27;33528;-83
2023/07/21 11:52:24;;;;;;;5.90;2.75;;;;;;;26.27;46.91;99969.38;6552025;27;34756;-83
2023/07/21 11:55:28;;;;;;;2.83;2.60;;;;;;;25.84;53.86;99974.78;6551393;27;34186;-83
2023/07/21 11:58:32;;;;;;;3.80;2.80;;;;;;;25.06;58.99;99979.94;6514786;27;33318;-83
2023/07/21 12:01:35;;;;;;;3.95;2.67;;;;;;;24.72;62.10;99981.78;6515417;27;33250;-83
2023/07/21 12:04:38;;;;;;;6.20;2.78;;;;;;;24.55;64.15;99966.41;6532010;27;33333;-83
2023/07/21 12:07:42;;;;;;;4.47;2.50;;;;;;;24.73;64.27;99948.44;6514204;27;33921;-83
2023/07/21 12:10:45;;;;;;;3.12;2.40;;;;;;;25.21;63.38;99956.19;6532402;27;34099;-83
2023/07/21 12:13:47;;;;;;;6.85;3.40;;;;;;;25.64;64.18;99948.97;6532889;27;33062;-83
2023/07/21 12:16:55;;;;;;;5.87;2.83;;;;;;;26.21;61.83;99952.09;6531844;27;34737;-83
2023/07/21 12:19:58;;;;;;;5.87;3.03;;;;;;;27.29;58.80;99948.78;6551111;27;33164;-86
2023/07/21 12:23:01;;;;;;;4.53;2.90;;;;;;;28.30;55.16;99961.22;6514568;27;34386;-87
2023/07/21 12:26:04;;;;;;;3.03;2.72;;;;;;;29.46;51.03;99950.75;6551930;27;33207;-87
2023/07/21 12:29:07;;;;;;;4.28;3.00;;;;;;;30.43;45.92;99946.28;6532560;27;34236;-87
2023/07/21 12:32:10;;;;;;;3.62;2.58;;;;;;;32.49;41.02;99950.50;6514517;27;33337;-84
2023/07/21 12:35:13;;;;;;;2.80;2.25;;;;;;;33.08;37.61;99934.94;6514805;27;32956;-83
2023/07/21 12:38:16;;;;;;;2.92;2.45;;;;;;;35.40;31.70;99936.44;6519624;27;34413;-84
2023/07/21 12:41:19;;;;;;;4.75;2.17;;;;;;;36.32;31.07;99943.75;6537340;27;33834;-83
2023/07/21 12:44:21;;;;;;;3.80;2.12;;;;;;;36.36;27.76;99941.06;6514600;27;33150;-83
2023/07/21 12:47:25;;;;;;;2.45;2.25;;;;;;;35.85;29.74;99940.91;6534514;27;34145;-83
2023/07/21 12:50:27;;;;;;;4.37;2.28;;;;;;;34.37;31.85;99932.03;6534255;27;33457;-84
2023/07/21 12:53:30;;;;;;;3.25;2.30;;;;;;;32.63;35.10;99950.28;6553607;27;33759;-83
2023/07/21 12:56:33;;;;;;;5.00;2.40;;;;;;;30.92;39.54;99947.09;6536133;27;33361;-83
2023/07/21 12:59:36;;;;;;;4.12;2.28;;;;;;;30.81;38.81;99944.97;6535812;27;34401;-84
2023/07/21 13:02:40;;;;;;;6.80;2.45;;;;;;;30.28;39.85;99958.66;6515554;27;33473;-84
2023/07/21 13:05:43;;;;;;;3.72;2.37;;;;;;;30.67;39.92;99959.75;6531707;27;33053;-83
2023/07/21 13:08:58;;;;;;;2.75;2.42;;;;;;;30.71;39.64;99963.53;6534067;27;33050;-83
2023/07/21 13:12:02;;;;;;;6.00;2.70;;;;;;;29.76;43.27;99969.41;6551249;27;33147;-83
2023/07/21 13:15:05;;;;;;;4.50;2.50;;;;;;;28.79;43.37;99968.84;6551049;27;33308;-83
2023/07/21 13:18:08;;;;;;;5.28;2.42;;;;;;;28.33;43.79;99971.69;6550313;27;33392;-83
2023/07/21 13:21:11;;;;;;;2.70;2.15;;;;;;;27.50;49.75;99979.75;6550790;27;33301;-83
2023/07/21 13:24:14;;;;;;;2.55;2.33;;;;;;;27.63;48.77;99970.66;6531248;27;34433;-83
2023/07/21 13:27:17;;;;;;;4.68;2.12;;;;;;;27.08;47.67;99964.81;6532107;27;34323;-83
2023/07/21 13:30:21;;;;;;;9.90;2.92;;;;;;;26.85;49.98;99961.84;6516986;27;32914;-83
2023/07/21 13:33:24;;;;;;;4.93;2.37;;;;;;;27.92;47.26;99950.28;6531102;27;34148;-83
2023/07/21 13:36:27;;;;;;;3.25;2.53;;;;;;;29.27;43.52;99950.91;6530993;27;34460;-83
2023/07/21 13:39:30;;;;;;;4.65;2.50;;;;;;;30.09;41.15;99932.22;6549757;27;34180;-83
2023/07/21 13:42:33;;;;;;;3.47;2.37;;;;;;;30.46;41.09;99928.16;6513478;27;34114;-83
2023/07/21 13:45:36;;;;;;;8.63;2.30;;;;;;;30.05;40.74;99923.72;6531432;27;33339;-83
2023/07/21 13:48:39;;;;;;;3.55;2.22;;;;;;;29.72;41.29;99912.09;6513797;27;33461;-84
2023/07/21 13:51:42;;;;;;;3.87;2.30;;;;;;;29.05;44.13;99918.44;6532982;27;33342;-84
2023/07/21 13:54:45;;;;;;;3.95;2.00;;;;;;;27.46;45.42;99913.12;6513431;27;34296;-83
2023/07/21 13:57:47;;;;;;;2.95;2.30;;;;;;;27.47;46.91;99922.28;6513299;27;33040;-83
2023/07/21 14:00:51;;;;;;;2.50;2.30;;;;;;;27.01;48.91;99917.41;6531274;27;33289;-83
2023/07/21 14:03:54;;;;;;;2.90;2.58;;;;;;;26.86;50.47;99910.16;6531259;27;34136;-84
2023/07/21 14:06:57;;;;;;;4.93;3.00;;;;;;;26.77;51.15;99910.00;6531349;27;33573;-84
2023/07/21 14:10:00;;;;;;;4.30;2.33;;;;;;;26.70;52.11;99909.53;6550850;27;34127;-83
2023/07/21 14:13:03;;;;;;;6.12;2.90;;;;;;;26.13;53.00;99916.84;6513330;27;34256;-83
2023/07/21 14:16:08;;;;;;;2.60;2.40;;;;;;;26.29;55.17;99910.00;6530686;27;33179;-83
2023/07/21 14:19:11;;;;;;;3.30;2.78;;;;;;;26.10;54.34;99898.12;6513486;27;33469;-82